sensor_id;sensor_type;location;lat;lon;timestamp;pressure;altitude;pressure_sealevel;temperature;humidity
51759;BME280;66684;47.568;18.734;2023-06-22T00:02:14;99742.78;;;20.47;100.00
51759;BME280;66684;47.568;18.734;2023-06-22T00:04:40;99746.28;;;20.46;100.00
51759;BME280;66684;47.568;18.734;2023-06-22T00:07:06;99738.44;;;20.51;100.00
51759;BME280;66684;47.568;18.734;2023-06-22T00:09:31;99737.41;;;20.17;100.00
51759;BME280;66684;47.568;18.734;2023-06-22T00:11:58;99733.81;;;19.90;100.00
51759;BME280;66684;47.568;18.734;2023-06-22T00:14:24;99737.34;;;20.02;100.00
51759;BME280;66684;47.568;18.734;2023-06-22T00:16:49;99736.59;;;20.33;100.00
51759;BME280;66684;47.568;18.734;2023-06-22T00:19:21;99728.72;;;20.33;100.00
51759;BME280;66684;47.568;18.734;2023-06-22T00:21:48;99723.41;;;20.15;100.00
51759;BME280;66684;47.568;18.734;2023-06-22T00:24:20;99711.19;;;20.23;100.00
51759;BME280;66684;47.568;18.734;2023-06-22T00:26:49;99712.97;;;20.27;100.00
51759;BME280;66684;47.568;18.734;2023-06-22T00:29:16;99719.09;;;20.32;100.00
51759;BME280;66684;47.568;18.734;2023-06-22T00:31:42;99711.22;;;20.35;100.00
51759;BME280;66684;47.568;18.734;2023-06-22T00:34:08;99710.31;;;20.15;100.00
51759;BME280;66684;47.568;18.734;2023-06-22T00:36:35;99705.09;;;20.33;100.00
51759;BME280;66684;47.568;18.734;2023-06-22T00:39:01;99706.88;;;20.39;100.00
51759;BME280;66684;47.568;18.734;2023-06-22T00:41:27;99702.50;;;20.39;100.00
51759;BME280;66684;47.568;18.734;2023-06-22T00:43:56;99698.97;;;20.28;100.00
51759;BME280;66684;47.568;18.734;2023-06-22T00:46:22;99707.72;;;20.24;100.00
51759;BME280;66684;47.568;18.734;2023-06-22T00:48:50;99704.16;;;20.10;100.00
51759;BME280;66684;47.568;18.734;2023-06-22T00:51:16;99705.81;;;19.86;100.00
51759;BME280;66684;47.568;18.734;2023-06-22T00:53:42;99709.28;;;19.84;100.00
51759;BME280;66684;47.568;18.734;2023-06-22T00:56:09;99709.00;;;19.36;100.00
51759;BME280;66684;47.568;18.734;2023-06-22T00:58:38;99714.06;;;19.12;100.00
51759;BME280;66684;47.568;18.734;2023-06-22T01:01:07;99713.34;;;19.34;100.00
51759;BME280;66684;47.568;18.734;2023-06-22T01:03:33;99701.94;;;19.29;100.00
51759;BME280;66684;47.568;18.734;2023-06-22T01:06:08;99699.44;;;19.46;100.00
51759;BME280;66684;47.568;18.734;2023-06-22T01:08:44;99700.22;;;19.31;100.00
51759;BME280;66684;47.568;18.734;2023-06-22T01:11:26;99702.97;;;19.50;100.00
51759;BME280;66684;47.568;18.734;2023-06-22T01:16:48;99697.88;;;19.73;100.00
51759;BME280;66684;47.568;18.734;2023-06-22T01:22:20;99699.34;;;19.31;100.00
51759;BME280;66684;47.568;18.734;2023-06-22T01:25:13;99707.06;;;19.14;100.00
51759;BME280;66684;47.568;18.734;2023-06-22T01:30:46;99704.63;;;19.41;100.00
51759;BME280;66684;47.568;18.734;2023-06-22T01:33:15;99698.44;;;19.29;100.00
51759;BME280;66684;47.568;18.734;2023-06-22T01:35:42;99705.50;;;19.37;100.00
51759;BME280;66684;47.568;18.734;2023-06-22T01:38:09;99710.72;;;19.34;100.00
51759;BME280;66684;47.568;18.734;2023-06-22T01:40:36;99709.69;;;19.16;100.00
51759;BME280;66684;47.568;18.734;2023-06-22T01:43:03;99707.22;;;19.35;100.00
51759;BME280;66684;47.568;18.734;2023-06-22T01:45:30;99707.22;;;19.34;100.00
51759;BME280;66684;47.568;18.734;2023-06-22T01:47:56;99707.34;;;19.51;100.00
51759;BME280;66684;47.568;18.734;2023-06-22T01:50:22;99713.47;;;19.54;100.00
51759;BME280;66684;47.568;18.734;2023-06-22T01:52:48;99715.31;;;19.66;100.00
51759;BME280;66684;47.568;18.734;2023-06-22T01:55:14;99721.47;;;19.68;100.00
51759;BME280;66684;47.568;18.734;2023-06-22T01:57:40;99718.69;;;19.54;100.00
51759;BME280;66684;47.568;18.734;2023-06-22T02:00:18;99727.37;;;19.43;100.00
51759;BME280;66684;47.568;18.734;2023-06-22T02:02:57;99731.75;;;19.48;100.00
51759;BME280;66684;47.568;18.734;2023-06-22T02:05:26;99735.00;;;19.12;100.00
51759;BME280;66684;47.568;18.734;2023-06-22T02:08:10;99738.00;;;18.62;100.00
51759;BME280;66684;47.568;18.734;2023-06-22T02:10:38;99732.03;;;18.72;100.00
51759;BME280;66684;47.568;18.734;2023-06-22T02:13:10;99733.09;;;18.93;100.00
51759;BME280;66684;47.568;18.734;2023-06-22T02:15:37;99736.66;;;19.04;100.00
51759;BME280;66684;47.568;18.734;2023-06-22T02:18:03;99734.84;;;18.94;100.00
51759;BME280;66684;47.568;18.734;2023-06-22T02:20:29;99735.69;;;18.88;100.00
51759;BME280;66684;47.568;18.734;2023-06-22T02:22:55;99731.19;;;18.76;100.00
51759;BME280;66684;47.568;18.734;2023-06-22T02:25:21;99743.59;;;18.93;100.00
51759;BME280;66684;47.568;18.734;2023-06-22T02:27:47;99738.44;;;19.05;100.00
51759;BME280;66684;47.568;18.734;2023-06-22T02:30:13;99738.41;;;19.02;100.00
51759;BME280;66684;47.568;18.734;2023-06-22T02:32:42;99743.63;;;18.99;100.00
51759;BME280;66684;47.568;18.734;2023-06-22T02:35:09;99743.59;;;18.93;100.00
51759;BME280;66684;47.568;18.734;2023-06-22T02:37:35;99745.22;;;18.84;100.00
51759;BME280;66684;47.568;18.734;2023-06-22T02:40:06;99752.25;;;18.89;100.00
51759;BME280;66684;47.568;18.734;2023-06-22T02:42:33;99746.03;;;18.77;100.00
51759;BME280;66684;47.568;18.734;2023-06-22T02:44:59;99744.41;;;18.89;100.00
51759;BME280;66684;47.568;18.734;2023-06-22T02:47:25;99748.72;;;18.83;100.00
51759;BME280;66684;47.568;18.734;2023-06-22T02:49:59;99746.72;;;18.61;100.00
51759;BME280;66684;47.568;18.734;2023-06-22T02:52:25;99748.59;;;18.70;100.00
51759;BME280;66684;47.568;18.734;2023-06-22T02:54:50;99742.59;;;18.84;100.00
51759;BME280;66684;47.568;18.734;2023-06-22T02:57:16;99743.53;;;18.90;100.00
51759;BME280;66684;47.568;18.734;2023-06-22T02:59:42;99745.31;;;18.94;100.00
51759;BME280;66684;47.568;18.734;2023-06-22T03:02:09;99752.38;;;19.01;100.00
51759;BME280;66684;47.568;18.734;2023-06-22T03:04:38;99745.34;;;18.97;100.00
51759;BME280;66684;47.568;18.734;2023-06-22T03:07:04;99731.28;;;18.85;100.00
51759;BME280;66684;47.568;18.734;2023-06-22T03:09:30;99736.56;;;18.92;100.00
51759;BME280;66684;47.568;18.734;2023-06-22T03:11:56;99737.47;;;18.95;100.00
51759;BME280;66684;47.568;18.734;2023-06-22T03:14:22;99733.13;;;18.96;100.00
51759;BME280;66684;47.568;18.734;2023-06-22T03:16:48;99728.84;;;19.05;100.00
51759;BME280;66684;47.568;18.734;2023-06-22T03:19:14;99721.81;;;19.00;100.00
51759;BME280;66684;47.568;18.734;2023-06-22T03:21:40;99720.91;;;18.98;100.00
51759;BME280;66684;47.568;18.734;2023-06-22T03:24:06;99719.25;;;19.06;100.00
51759;BME280;66684;47.568;18.734;2023-06-22T03:26:33;99729.75;;;19.10;100.00
51759;BME280;66684;47.568;18.734;2023-06-22T03:29:00;99722.62;;;18.93;100.00
51759;BME280;66684;47.568;18.734;2023-06-22T03:31:26;99734.09;;;19.07;100.00
51759;BME280;66684;47.568;18.734;2023-06-22T03:33:52;99719.28;;;19.12;100.00
51759;BME280;66684;47.568;18.734;2023-06-22T03:36:18;99732.34;;;19.06;100.00
51759;BME280;66684;47.568;18.734;2023-06-22T03:38:48;99726.28;;;19.13;100.00
51759;BME280;66684;47.568;18.734;2023-06-22T03:41:15;99717.28;;;18.80;100.00
51759;BME280;66684;47.568;18.734;2023-06-22T03:43:41;99723.47;;;18.92;100.00
51759;BME280;66684;47.568;18.734;2023-06-22T03:46:07;99726.19;;;19.04;100.00
51759;BME280;66684;47.568;18.734;2023-06-22T03:48:33;99725.41;;;19.14;100.00
51759;BME280;66684;47.568;18.734;2023-06-22T03:51:00;99726.34;;;19.19;100.00
51759;BME280;66684;47.568;18.734;2023-06-22T03:53:26;99729.66;;;19.00;100.00
51759;BME280;66684;47.568;18.734;2023-06-22T03:55:53;99727.78;;;18.83;100.00
51759;BME280;66684;47.568;18.734;2023-06-22T03:58:20;99719.16;;;18.97;100.00
51759;BME280;66684;47.568;18.734;2023-06-22T04:00:47;99717.50;;;19.08;100.00
51759;BME280;66684;47.568;18.734;2023-06-22T04:03:13;99716.63;;;19.06;100.00
51759;BME280;66684;47.568;18.734;2023-06-22T04:05:40;99718.47;;;19.18;100.00
51759;BME280;66684;47.568;18.734;2023-06-22T04:08:06;99726.34;;;19.19;100.00
51759;BME280;66684;47.568;18.734;2023-06-22T04:10:32;99733.13;;;18.97;100.00
51759;BME280;66684;47.568;18.734;2023-06-22T04:12:58;99744.63;;;19.16;100.00
51759;BME280;66684;47.568;18.734;2023-06-22T04:15:24;99750.94;;;19.36;100.00
51759;BME280;66684;47.568;18.734;2023-06-22T04:17:50;99746.59;;;19.45;100.00
51759;BME280;66684;47.568;18.734;2023-06-22T04:20:15;99745.84;;;19.61;100.00
51759;BME280;66684;47.568;18.734;2023-06-22T04:22:41;99741.53;;;19.61;100.00
51759;BME280;66684;47.568;18.734;2023-06-22T04:25:08;99744.22;;;19.75;100.00
51759;BME280;66684;47.568;18.734;2023-06-22T04:27:34;99748.66;;;19.88;100.00
51759;BME280;66684;47.568;18.734;2023-06-22T04:30:07;99750.37;;;19.82;100.00
51759;BME280;66684;47.568;18.734;2023-06-22T04:32:34;99751.28;;;19.90;100.00
51759;BME280;66684;47.568;18.734;2023-06-22T04:35:02;99744.41;;;20.15;100.00
51759;BME280;66684;47.568;18.734;2023-06-22T04:37:30;99757.56;;;20.19;100.00
51759;BME280;66684;47.568;18.734;2023-06-22T04:39:57;99758.47;;;20.32;100.00
51759;BME280;66684;47.568;18.734;2023-06-22T04:42:24;99766.28;;;20.21;100.00
51759;BME280;66684;47.568;18.734;2023-06-22T04:44:50;99762.84;;;20.32;100.00
51759;BME280;66684;47.568;18.734;2023-06-22T04:47:17;99759.44;;;20.50;100.00
51759;BME280;66684;47.568;18.734;2023-06-22T04:49:42;99754.22;;;20.57;100.00
51759;BME280;66684;47.568;18.734;2023-06-22T04:52:12;99760.34;;;20.67;100.00
51759;BME280;66684;47.568;18.734;2023-06-22T04:54:39;99758.63;;;21.06;100.00
51759;BME280;66684;47.568;18.734;2023-06-22T04:57:13;99756.91;;;21.15;100.00
51759;BME280;66684;47.568;18.734;2023-06-22T04:59:40;99769.16;;;20.96;100.00
51759;BME280;66684;47.568;18.734;2023-06-22T05:02:07;99773.50;;;20.85;100.00
51759;BME280;66684;47.568;18.734;2023-06-22T05:04:33;99768.28;;;21.00;100.00
51759;BME280;66684;47.568;18.734;2023-06-22T05:07:02;99770.91;;;20.94;100.00
51759;BME280;66684;47.568;18.734;2023-06-22T05:09:29;99779.69;;;21.02;100.00
51759;BME280;66684;47.568;18.734;2023-06-22T05:11:55;99777.91;;;21.05;100.00
51759;BME280;66684;47.568;18.734;2023-06-22T05:14:22;99775.31;;;21.23;100.00
51759;BME280;66684;47.568;18.734;2023-06-22T05:16:49;99784.06;;;21.17;100.00
51759;BME280;66684;47.568;18.734;2023-06-22T05:19:17;99779.72;;;21.30;100.00
51759;BME280;66684;47.568;18.734;2023-06-22T05:21:43;99775.34;;;21.29;100.00
51759;BME280;66684;47.568;18.734;2023-06-22T05:24:09;99787.56;;;21.21;100.00
51759;BME280;66684;47.568;18.734;2023-06-22T05:26:35;99786.69;;;21.04;100.00
51759;BME280;66684;47.568;18.734;2023-06-22T05:29:02;99795.44;;;21.09;100.00
51759;BME280;66684;47.568;18.734;2023-06-22T05:31:29;99795.50;;;21.39;100.00
51759;BME280;66684;47.568;18.734;2023-06-22T05:33:55;99803.34;;;21.62;100.00
51759;BME280;66684;47.568;18.734;2023-06-22T05:36:22;99799.84;;;21.68;100.00
51759;BME280;66684;47.568;18.734;2023-06-22T05:38:56;99804.25;;;21.60;100.00
51759;BME280;66684;47.568;18.734;2023-06-22T05:41:22;99811.25;;;21.73;100.00
51759;BME280;66684;47.568;18.734;2023-06-22T05:43:48;99811.22;;;21.79;100.00
51759;BME280;66684;47.568;18.734;2023-06-22T05:46:14;99823.47;;;22.01;100.00
51759;BME280;66684;47.568;18.734;2023-06-22T05:48:39;99826.97;;;22.16;100.00
51759;BME280;66684;47.568;18.734;2023-06-22T05:51:05;99826.09;;;22.20;100.00
51759;BME280;66684;47.568;18.734;2023-06-22T05:53:31;99819.91;;;22.30;100.00
51759;BME280;66684;47.568;18.734;2023-06-22T05:55:57;99823.38;;;22.41;100.00
51759;BME280;66684;47.568;18.734;2023-06-22T05:58:23;99828.59;;;22.53;100.00
51759;BME280;66684;47.568;18.734;2023-06-22T06:00:49;99831.19;;;22.66;100.00
51759;BME280;66684;47.568;18.734;2023-06-22T06:03:15;99826.78;;;22.61;100.00
51759;BME280;66684;47.568;18.734;2023-06-22T06:05:42;99837.47;;;22.25;100.00
51759;BME280;66684;47.568;18.734;2023-06-22T06:08:08;99826.94;;;22.32;100.00
51759;BME280;66684;47.568;18.734;2023-06-22T06:10:36;99815.50;;;22.38;100.00
51759;BME280;66684;47.568;18.734;2023-06-22T06:13:02;99814.50;;;22.64;100.00
51759;BME280;66684;47.568;18.734;2023-06-22T06:15:30;99822.25;;;22.94;100.00
51759;BME280;66684;47.568;18.734;2023-06-22T06:17:56;99825.72;;;23.07;100.00
51759;BME280;66684;47.568;18.734;2023-06-22T06:20:24;99828.16;;;23.33;100.00
51759;BME280;66684;47.568;18.734;2023-06-22T06:22:50;99831.56;;;23.44;100.00
51759;BME280;66684;47.568;18.734;2023-06-22T06:25:16;99834.25;;;23.41;100.00
51759;BME280;66684;47.568;18.734;2023-06-22T06:27:45;99827.94;;;23.60;100.00
51759;BME280;66684;47.568;18.734;2023-06-22T06:30:12;99825.19;;;23.77;100.00
51759;BME280;66684;47.568;18.734;2023-06-22T06:32:39;99824.97;;;23.97;100.00
51759;BME280;66684;47.568;18.734;2023-06-22T06:35:07;99825.75;;;24.08;100.00
51759;BME280;66684;47.568;18.734;2023-06-22T06:37:36;99829.19;;;24.13;100.00
51759;BME280;66684;47.568;18.734;2023-06-22T06:40:06;99825.63;;;24.17;99.00
51759;BME280;66684;47.568;18.734;2023-06-22T06:42:40;99818.47;;;24.26;98.14
51759;BME280;66684;47.568;18.734;2023-06-22T06:45:08;99825.22;;;24.54;100.00
51759;BME280;66684;47.568;18.734;2023-06-22T06:47:34;99827.72;;;24.63;100.00
51759;BME280;66684;47.568;18.734;2023-06-22T06:50:00;99829.34;;;24.77;100.00
51759;BME280;66684;47.568;18.734;2023-06-22T06:52:26;99828.09;;;25.02;96.92
51759;BME280;66684;47.568;18.734;2023-06-22T06:54:52;99826.28;;;25.07;96.75
51759;BME280;66684;47.568;18.734;2023-06-22T06:57:18;99835.91;;;25.11;94.33
51759;BME280;66684;47.568;18.734;2023-06-22T06:59:46;99828.63;;;25.25;93.01
51759;BME280;66684;47.568;18.734;2023-06-22T07:02:12;99827.63;;;25.33;91.91
51759;BME280;66684;47.568;18.734;2023-06-22T07:04:37;99828.31;;;25.45;92.80
51759;BME280;66684;47.568;18.734;2023-06-22T07:07:04;99817.03;;;25.36;91.52
51759;BME280;66684;47.568;18.734;2023-06-22T07:09:30;99824.59;;;25.57;94.16
51759;BME280;66684;47.568;18.734;2023-06-22T07:11:56;99820.84;;;25.73;93.06
51759;BME280;66684;47.568;18.734;2023-06-22T07:14:24;99820.75;;;25.76;88.03
51759;BME280;66684;47.568;18.734;2023-06-22T07:16:50;99827.03;;;25.69;87.76
51759;BME280;66684;47.568;18.734;2023-06-22T07:19:16;99821.47;;;25.86;88.09
51759;BME280;66684;47.568;18.734;2023-06-22T07:21:49;99817.06;;;25.87;90.10
51759;BME280;66684;47.568;18.734;2023-06-22T07:24:15;99818.75;;;25.89;85.26
51759;BME280;66684;47.568;18.734;2023-06-22T07:26:41;99815.25;;;25.90;87.17
51759;BME280;66684;47.568;18.734;2023-06-22T07:29:11;99814.06;;;26.05;87.19
51759;BME280;66684;47.568;18.734;2023-06-22T07:31:37;99808.56;;;26.16;87.85
51759;BME280;66684;47.568;18.734;2023-06-22T07:34:05;99812.25;;;26.07;85.07
51759;BME280;66684;47.568;18.734;2023-06-22T07:36:31;99813.38;;;25.94;90.83
51759;BME280;66684;47.568;18.734;2023-06-22T07:38:57;99808.88;;;25.99;88.52
51759;BME280;66684;47.568;18.734;2023-06-22T07:41:23;99806.69;;;26.22;89.03
51759;BME280;66684;47.568;18.734;2023-06-22T07:43:49;99808.63;;;26.13;89.07
51759;BME280;66684;47.568;18.734;2023-06-22T07:46:16;99799.91;;;26.06;87.49
51759;BME280;66684;47.568;18.734;2023-06-22T07:48:41;99796.47;;;26.01;87.31
51759;BME280;66684;47.568;18.734;2023-06-22T07:51:09;99799.91;;;26.06;90.34
51759;BME280;66684;47.568;18.734;2023-06-22T07:53:40;99801.25;;;26.28;90.26
51759;BME280;66684;47.568;18.734;2023-06-22T07:56:06;99793.78;;;26.49;86.15
51759;BME280;66684;47.568;18.734;2023-06-22T07:58:34;99801.66;;;26.52;85.24
51759;BME280;66684;47.568;18.734;2023-06-22T08:01:01;99792.56;;;26.63;78.56
51759;BME280;66684;47.568;18.734;2023-06-22T08:03:27;99788.28;;;26.58;77.62
51759;BME280;66684;47.568;18.734;2023-06-22T08:05:53;99793.72;;;26.92;78.84
51759;BME280;66684;47.568;18.734;2023-06-22T08:08:23;99792.56;;;27.04;82.13
51759;BME280;66684;47.568;18.734;2023-06-22T08:10:49;99784.88;;;27.30;78.28
51759;BME280;66684;47.568;18.734;2023-06-22T08:13:15;99790.75;;;27.43;78.97
51759;BME280;66684;47.568;18.734;2023-06-22T08:15:41;99785.22;;;27.51;75.39
51759;BME280;66684;47.568;18.734;2023-06-22T08:18:06;99787.13;;;27.46;74.64
51759;BME280;66684;47.568;18.734;2023-06-22T08:20:32;99789.34;;;27.28;75.26
51759;BME280;66684;47.568;18.734;2023-06-22T08:22:59;99790.50;;;27.52;75.67
51759;BME280;66684;47.568;18.734;2023-06-22T08:25:33;99789.00;;;27.76;69.93
51759;BME280;66684;47.568;18.734;2023-06-22T08:28:00;99786.69;;;27.96;68.91
51759;BME280;66684;47.568;18.734;2023-06-22T08:30:26;99786.16;;;28.15;64.60
51759;BME280;66684;47.568;18.734;2023-06-22T08:32:52;99776.16;;;28.25;63.07
51759;BME280;66684;47.568;18.734;2023-06-22T08:35:19;99780.44;;;28.30;64.64
51759;BME280;66684;47.568;18.734;2023-06-22T08:37:46;99779.25;;;28.40;62.35
51759;BME280;66684;47.568;18.734;2023-06-22T08:40:18;99783.41;;;28.51;63.54
51759;BME280;66684;47.568;18.734;2023-06-22T08:42:46;99773.59;;;28.53;61.66
51759;BME280;66684;47.568;18.734;2023-06-22T08:45:13;99774.50;;;28.52;62.80
51759;BME280;66684;47.568;18.734;2023-06-22T08:47:39;99773.63;;;28.51;59.55
51759;BME280;66684;47.568;18.734;2023-06-22T08:50:10;99770.75;;;28.59;62.21
51759;BME280;66684;47.568;18.734;2023-06-22T08:52:38;99760.03;;;28.62;61.38
51759;BME280;66684;47.568;18.734;2023-06-22T08:55:05;99765.88;;;28.73;61.89
51759;BME280;66684;47.568;18.734;2023-06-22T08:57:32;99763.56;;;28.62;60.41
51759;BME280;66684;47.568;18.734;2023-06-22T08:59:58;99756.06;;;28.75;60.74
51759;BME280;66684;47.568;18.734;2023-06-22T09:02:25;99754.75;;;28.88;59.91
51759;BME280;66684;47.568;18.734;2023-06-22T09:04:51;99760.25;;;28.82;60.18
51759;BME280;66684;47.568;18.734;2023-06-22T09:07:21;99757.06;;;29.00;61.81
51759;BME280;66684;47.568;18.734;2023-06-22T09:09:49;99757.31;;;28.91;60.67
51759;BME280;66684;47.568;18.734;2023-06-22T09:12:15;99758.50;;;29.11;59.88
51759;BME280;66684;47.568;18.734;2023-06-22T09:14:41;99749.28;;;29.21;61.20
51759;BME280;66684;47.568;18.734;2023-06-22T09:17:07;99755.31;;;29.26;63.30
51759;BME280;66684;47.568;18.734;2023-06-22T09:19:32;99757.41;;;29.16;61.38
51759;BME280;66684;47.568;18.734;2023-06-22T09:21:59;99754.22;;;28.77;62.08
51759;BME280;66684;47.568;18.734;2023-06-22T09:24:25;99751.47;;;28.80;62.46
51759;BME280;66684;47.568;18.734;2023-06-22T09:26:51;99751.31;;;28.85;65.15
51759;BME280;66684;47.568;18.734;2023-06-22T09:29:17;99753.78;;;28.63;63.79
51759;BME280;66684;47.568;18.734;2023-06-22T09:31:43;99754.72;;;28.32;67.03
51759;BME280;66684;47.568;18.734;2023-06-22T09:34:09;99751.75;;;28.71;65.96
51759;BME280;66684;47.568;18.734;2023-06-22T09:36:35;99753.41;;;28.75;63.36
51759;BME280;66684;47.568;18.734;2023-06-22T09:39:02;99741.75;;;28.79;61.78
51759;BME280;66684;47.568;18.734;2023-06-22T09:41:31;99746.84;;;28.87;65.86
51759;BME280;66684;47.568;18.734;2023-06-22T09:43:57;99738.75;;;28.62;66.11
51759;BME280;66684;47.568;18.734;2023-06-22T09:46:23;99741.97;;;28.71;67.33
51759;BME280;66684;47.568;18.734;2023-06-22T09:48:52;99746.78;;;28.88;68.79
51759;BME280;66684;47.568;18.734;2023-06-22T09:51:18;99746.41;;;29.00;66.15
51759;BME280;66684;47.568;18.734;2023-06-22T09:53:45;99736.69;;;29.26;62.34
51759;BME280;66684;47.568;18.734;2023-06-22T09:56:11;99739.28;;;29.55;64.67
51759;BME280;66684;47.568;18.734;2023-06-22T09:58:44;99735.75;;;29.78;64.82
51759;BME280;66684;47.568;18.734;2023-06-22T10:01:12;99730.50;;;29.77;60.12
51759;BME280;66684;47.568;18.734;2023-06-22T10:03:37;99732.31;;;29.51;61.48
51759;BME280;66684;47.568;18.734;2023-06-22T10:06:03;99731.44;;;29.76;62.67
51759;BME280;66684;47.568;18.734;2023-06-22T10:08:30;99723.94;;;29.87;61.36
51759;BME280;66684;47.568;18.734;2023-06-22T10:10:56;99739.16;;;29.59;61.87
51759;BME280;66684;47.568;18.734;2023-06-22T10:13:21;99733.16;;;30.02;62.75
51759;BME280;66684;47.568;18.734;2023-06-22T10:15:47;99728.97;;;30.20;60.98
51759;BME280;66684;47.568;18.734;2023-06-22T10:18:19;99726.53;;;30.14;62.35
51759;BME280;66684;47.568;18.734;2023-06-22T10:20:47;99737.47;;;30.04;63.85
51759;BME280;66684;47.568;18.734;2023-06-22T10:23:14;99735.50;;;30.09;63.14
51759;BME280;66684;47.568;18.734;2023-06-22T10:25:40;99733.91;;;30.05;63.67
51759;BME280;66684;47.568;18.734;2023-06-22T10:28:06;99729.13;;;30.15;61.87
51759;BME280;66684;47.568;18.734;2023-06-22T10:30:33;99730.78;;;30.41;64.09
51759;BME280;66684;47.568;18.734;2023-06-22T10:32:58;99726.37;;;30.17;62.53
51759;BME280;66684;47.568;18.734;2023-06-22T10:35:24;99724.50;;;29.95;62.66
51759;BME280;66684;47.568;18.734;2023-06-22T10:37:50;99713.06;;;30.17;61.04
51759;BME280;66684;47.568;18.734;2023-06-22T10:40:17;99716.34;;;30.47;61.56
51759;BME280;66684;47.568;18.734;2023-06-22T10:42:44;99722.56;;;30.71;61.29
51759;BME280;66684;47.568;18.734;2023-06-22T10:45:10;99719.94;;;30.91;59.03
51759;BME280;66684;47.568;18.734;2023-06-22T10:47:36;99713.91;;;30.86;56.42
51759;BME280;66684;47.568;18.734;2023-06-22T10:50:03;99716.53;;;30.87;57.09
51759;BME280;66684;47.568;18.734;2023-06-22T10:52:29;99716.25;;;31.15;54.39
51759;BME280;66684;47.568;18.734;2023-06-22T10:54:55;99712.84;;;31.34;53.23
51759;BME280;66684;47.568;18.734;2023-06-22T10:57:21;99713.97;;;31.49;55.70
51759;BME280;66684;47.568;18.734;2023-06-22T10:59:47;99711.78;;;31.58;55.36
51759;BME280;66684;47.568;18.734;2023-06-22T11:02:14;99717.81;;;31.43;58.44
51759;BME280;66684;47.568;18.734;2023-06-22T11:04:39;99703.28;;;31.49;53.80
51759;BME280;66684;47.568;18.734;2023-06-22T11:07:05;99708.38;;;31.75;53.04
51759;BME280;66684;47.568;18.734;2023-06-22T11:09:31;99704.16;;;31.90;51.62
51759;BME280;66684;47.568;18.734;2023-06-22T11:11:57;99702.44;;;31.89;49.69
51759;BME280;66684;47.568;18.734;2023-06-22T11:14:25;99699.19;;;32.01;52.24
51759;BME280;66684;47.568;18.734;2023-06-22T11:16:51;99687.84;;;31.76;47.19
51759;BME280;66684;47.568;18.734;2023-06-22T11:19:17;99682.91;;;31.66;50.15
51759;BME280;66684;47.568;18.734;2023-06-22T11:21:43;99689.09;;;32.08;51.07
51759;BME280;66684;47.568;18.734;2023-06-22T11:24:09;99690.94;;;32.45;51.04
51759;BME280;66684;47.568;18.734;2023-06-22T11:26:35;99684.91;;;32.59;48.62
51759;BME280;66684;47.568;18.734;2023-06-22T11:29:02;99680.87;;;32.50;47.26
51759;BME280;66684;47.568;18.734;2023-06-22T11:31:32;99676.50;;;32.66;47.69
51759;BME280;66684;47.568;18.734;2023-06-22T11:33:58;99681.41;;;32.75;46.88
51759;BME280;66684;47.568;18.734;2023-06-22T11:36:24;99666.59;;;33.05;45.83
51759;BME280;66684;47.568;18.734;2023-06-22T11:38:50;99671.84;;;32.89;47.11
51759;BME280;66684;47.568;18.734;2023-06-22T11:41:17;99664.53;;;32.73;46.52
51759;BME280;66684;47.568;18.734;2023-06-22T11:43:44;99667.59;;;32.66;47.34
51759;BME280;66684;47.568;18.734;2023-06-22T11:46:10;99675.81;;;32.44;48.14
51759;BME280;66684;47.568;18.734;2023-06-22T11:48:36;99675.06;;;32.21;47.30
51759;BME280;66684;47.568;18.734;2023-06-22T11:51:02;99672.84;;;32.50;47.69
51759;BME280;66684;47.568;18.734;2023-06-22T11:53:29;99666.28;;;32.74;45.76
51759;BME280;66684;47.568;18.734;2023-06-22T11:55:58;99660.66;;;32.98;44.88
51759;BME280;66684;47.568;18.734;2023-06-22T11:58:25;99662.16;;;32.67;45.24
51759;BME280;66684;47.568;18.734;2023-06-22T12:00:51;99651.34;;;32.70;44.91
51759;BME280;66684;47.568;18.734;2023-06-22T12:03:18;99657.47;;;33.09;45.77
51759;BME280;66684;47.568;18.734;2023-06-22T12:05:44;99658.47;;;33.06;44.15
51759;BME280;66684;47.568;18.734;2023-06-22T12:08:09;99655.16;;;33.36;45.35
51759;BME280;66684;47.568;18.734;2023-06-22T12:10:35;99648.53;;;33.60;44.91
51759;BME280;66684;47.568;18.734;2023-06-22T12:13:01;99645.63;;;33.65;43.38
51759;BME280;66684;47.568;18.734;2023-06-22T12:15:27;99639.22;;;33.67;41.65
51759;BME280;66684;47.568;18.734;2023-06-22T12:17:53;99641.84;;;33.85;41.48
51759;BME280;66684;47.568;18.734;2023-06-22T12:20:19;99643.28;;;33.92;43.42
51759;BME280;66684;47.568;18.734;2023-06-22T12:22:45;99634.06;;;33.80;44.78
51759;BME280;66684;47.568;18.734;2023-06-22T12:25:11;99638.00;;;33.57;45.23
51759;BME280;66684;47.568;18.734;2023-06-22T12:27:37;99626.34;;;33.23;44.44
51759;BME280;66684;47.568;18.734;2023-06-22T12:30:04;99630.81;;;33.23;45.04
51759;BME280;66684;47.568;18.734;2023-06-22T12:32:30;99628.59;;;33.31;44.24
51759;BME280;66684;47.568;18.734;2023-06-22T12:34:56;99619.66;;;33.15;45.19
51759;BME280;66684;47.568;18.734;2023-06-22T12:37:23;99624.47;;;33.08;46.00
51759;BME280;66684;47.568;18.734;2023-06-22T12:39:49;99626.00;;;33.29;46.88
51759;BME280;66684;47.568;18.734;2023-06-22T12:42:15;99628.00;;;33.26;44.72
51759;BME280;66684;47.568;18.734;2023-06-22T12:44:42;99620.44;;;32.99;45.07
51759;BME280;66684;47.568;18.734;2023-06-22T12:47:08;99625.53;;;33.39;46.37
51759;BME280;66684;47.568;18.734;2023-06-22T12:49:37;99616.75;;;33.70;43.49
51759;BME280;66684;47.568;18.734;2023-06-22T12:52:08;99612.97;;;33.57;43.91
51759;BME280;66684;47.568;18.734;2023-06-22T12:54:35;99620.66;;;33.47;44.21